Time;durP1;ratioP1;P1;durP2;ratioP2;P2;SDS_P1;SDS_P2;PMS_P1;PMS_P2;Temp;Humidity;BMP_temperature;BMP_pressure;BME280_temperature;BME280_humidity;BME280_pressure;Samples;Min_cycle;Max_cycle;Signal;HPM_P1;HPM_P2
2023/12/23 00:00:34;;;;;;;11.48;2.70;;;11.20;99.90;;;;;;5149891;27;20095;-51
2023/12/23 00:03:00;;;;;;;13.48;2.42;;;11.20;99.90;;;;;;5150002;27;20285;-51
2023/12/23 00:05:26;;;;;;;13.65;2.42;;;11.20;99.90;;;;;;5131944;27;20072;-49
2023/12/23 00:07:52;;;;;;;13.52;2.35;;;11.20;99.90;;;;;;5149719;27;20110;-50
2023/12/23 00:10:17;;;;;;;11.15;2.25;;;11.20;99.90;;;;;;5150234;27;20088;-49
2023/12/23 00:12:43;;;;;;;12.23;2.40;;;11.30;99.90;;;;;;5149915;27;20261;-51
2023/12/23 00:15:09;;;;;;;14.07;2.95;;;11.30;99.90;;;;;;5149646;27;20063;-48
2023/12/23 00:17:35;;;;;;;12.15;2.50;;;11.20;99.90;;;;;;5149667;27;20023;-50
2023/12/23 00:20:00;;;;;;;17.42;2.40;;;11.30;99.90;;;;;;5148657;27;20069;-52
2023/12/23 00:22:26;;;;;;;20.88;2.88;;;11.30;99.90;;;;;;5148639;27;20196;-51
2023/12/23 00:24:52;;;;;;;15.90;2.55;;;11.30;99.90;;;;;;5149407;27;20060;-52
2023/12/23 00:27:17;;;;;;;12.13;2.40;;;11.30;99.90;;;;;;5149692;27;20082;-50
2023/12/23 00:29:43;;;;;;;14.38;3.42;;;11.30;99.90;;;;;;5149548;27;20023;-51
2023/12/23 00:32:09;;;;;;;12.52;2.35;;;11.30;99.90;;;;;;5148574;27;20038;-51
2023/12/23 00:34:34;;;;;;;14.40;2.47;;;11.30;99.90;;;;;;5149627;27;20031;-50
2023/12/23 00:37:00;;;;;;;9.05;2.33;;;11.30;99.90;;;;;;5149567;27;20031;-50
2023/12/23 00:39:26;;;;;;;13.57;2.55;;;11.20;99.90;;;;;;5149484;27;20048;-50
2023/12/23 00:41:52;;;;;;;8.45;2.00;;;11.20;99.90;;;;;;5149451;27;20049;-50
2023/12/23 00:44:17;;;;;;;13.25;2.78;;;11.30;99.90;;;;;;5149342;27;20062;-50
2023/12/23 00:46:44;;;;;;;7.35;1.60;;;11.20;99.90;;;;;;5149173;27;20045;-50
2023/12/23 00:49:09;;;;;;;8.23;2.10;;;11.20;99.90;;;;;;5149243;27;20019;-50
2023/12/23 00:51:35;;;;;;;6.85;1.85;;;11.30;99.90;;;;;;5149288;27;20086;-51
2023/12/23 00:54:01;;;;;;;13.85;2.08;;;11.30;99.90;;;;;;5149238;27;20035;-51
2023/12/23 00:56:26;;;;;;;8.52;1.45;;;11.30;99.90;;;;;;5148712;27;20089;-50
2023/12/23 00:58:52;;;;;;;8.60;1.60;;;11.30;99.90;;;;;;5148254;27;20062;-49
2023/12/23 01:01:18;;;;;;;7.72;1.75;;;11.30;99.90;;;;;;5148902;27;20030;-50
2023/12/23 01:03:43;;;;;;;8.48;1.60;;;11.30;99.90;;;;;;5149010;27;20098;-50
2023/12/23 01:06:09;;;;;;;8.23;1.50;;;11.30;99.90;;;;;;5148955;27;20038;-49
2023/12/23 01:08:35;;;;;;;10.52;2.22;;;11.30;99.90;;;;;;5148346;27;20066;-50
2023/12/23 01:11:00;;;;;;;12.38;3.05;;;11.30;99.90;;;;;;5147812;27;20079;-48
2023/12/23 01:13:26;;;;;;;9.05;2.03;;;11.20;99.90;;;;;;5148858;27;20027;-50
2023/12/23 01:15:52;;;;;;;11.38;2.25;;;11.20;99.90;;;;;;5147763;27;20046;-48
2023/12/23 01:18:17;;;;;;;12.90;1.90;;;11.20;99.90;;;;;;5148979;27;20092;-48
2023/12/23 01:20:43;;;;;;;6.75;2.00;;;11.20;99.90;;;;;;5148878;27;20027;-49
2023/12/23 01:23:09;;;;;;;9.88;2.38;;;11.20;99.90;;;;;;5148816;27;20035;-47
2023/12/23 01:25:35;;;;;;;10.25;2.10;;;11.20;99.90;;;;;;5147623;27;20284;-48
2023/12/23 01:28:04;;;;;;;16.08;2.17;;;11.20;99.90;;;;;;5147446;27;20023;-47
2023/12/23 01:30:33;;;;;;;8.20;1.73;;;11.20;99.90;;;;;;5148654;27;20156;-50
2023/12/23 01:32:59;;;;;;;12.88;2.65;;;11.20;99.90;;;;;;5148589;27;20284;-50
2023/12/23 01:35:24;;;;;;;10.38;1.77;;;11.20;99.90;;;;;;5147456;27;20042;-50
2023/12/23 01:37:50;;;;;;;8.80;1.27;;;11.30;99.90;;;;;;5148435;27;20075;-50
2023/12/23 01:40:16;;;;;;;10.63;1.50;;;11.30;99.90;;;;;;5147365;27;20027;-50
2023/12/23 01:42:42;;;;;;;11.18;2.20;;;11.40;99.90;;;;;;5148502;27;20121;-50
2023/12/23 01:45:08;;;;;;;9.43;2.08;;;11.40;99.90;;;;;;5148181;27;20023;-48
2023/12/23 01:47:34;;;;;;;4.65;1.35;;;11.40;99.90;;;;;;5148139;27;20092;-50
2023/12/23 01:50:02;;;;;;;7.65;1.42;;;11.50;99.90;;;;;;5148182;27;20031;-50
2023/12/23 01:52:27;;;;;;;7.97;1.60;;;11.50;99.90;;;;;;5147003;27;20061;-50
2023/12/23 01:54:53;;;;;;;7.85;1.30;;;11.50;99.90;;;;;;5129910;27;20023;-49
2023/12/23 01:57:19;;;;;;;8.73;1.50;;;11.50;99.90;;;;;;5147583;27;20103;-50
2023/12/23 01:59:44;;;;;;;6.07;1.45;;;11.50;99.90;;;;;;5147681;27;20089;-50
2023/12/23 02:02:10;;;;;;;10.40;1.73;;;11.50;99.90;;;;;;5148006;27;20155;-50
2023/12/23 02:04:36;;;;;;;9.18;1.60;;;11.50;99.90;;;;;;5146810;27;20296;-50
2023/12/23 02:07:01;;;;;;;11.25;1.60;;;11.50;99.90;;;;;;5147605;27;20032;-50
2023/12/23 02:09:27;;;;;;;8.27;1.63;;;11.50;99.90;;;;;;5147541;27;20035;-51
2023/12/23 02:12:12;;;;;;;8.65;1.75;;;11.50;99.90;;;;;;5147722;27;20184;-50
2023/12/23 02:14:38;;;;;;;8.85;1.58;;;11.40;99.90;;;;;;5146875;27;20216;-48
2023/12/23 02:17:04;;;;;;;8.15;1.90;;;11.40;99.90;;;;;;5147591;27;20035;-47
2023/12/23 02:19:29;;;;;;;8.15;1.48;;;11.40;99.90;;;;;;5145873;27;20081;-50
2023/12/23 02:21:55;;;;;;;4.82;1.42;;;11.30;99.90;;;;;;5146417;27;20056;-48
2023/12/23 02:24:21;;;;;;;7.22;2.45;;;11.30;99.90;;;;;;5147459;27;20099;-47
2023/12/23 02:26:49;;;;;;;11.10;1.90;;;11.30;99.90;;;;;;5146549;27;20023;-49
2023/12/23 02:29:15;;;;;;;9.65;2.05;;;11.30;99.90;;;;;;5129919;27;20225;-50
2023/12/23 02:31:40;;;;;;;10.02;1.50;;;11.20;99.90;;;;;;5129148;27;20247;-51
2023/12/23 02:34:06;;;;;;;8.70;1.88;;;11.20;99.90;;;;;;5147425;27;20023;-51
2023/12/23 02:36:32;;;;;;;10.02;2.05;;;11.20;99.90;;;;;;5146388;27;20062;-51
2023/12/23 02:38:58;;;;;;;14.30;3.20;;;11.20;99.90;;;;;;5147469;27;20023;-50
2023/12/23 02:41:23;;;;;;;9.98;1.52;;;11.20;99.90;;;;;;5147064;27;20023;-50
2023/12/23 02:43:49;;;;;;;10.70;2.10;;;11.20;99.90;;;;;;5146058;27;20031;-49
2023/12/23 02:46:15;;;;;;;7.95;1.95;;;11.10;99.90;;;;;;5147244;27;20031;-50
2023/12/23 02:48:40;;;;;;;14.30;2.25;;;11.10;99.90;;;;;;5145815;27;20042;-49
2023/12/23 02:51:06;;;;;;;11.15;1.90;;;11.10;99.90;;;;;;5147052;27;20037;-49
2023/12/23 02:53:32;;;;;;;8.32;1.65;;;11.00;99.90;;;;;;5128741;27;20041;-50
2023/12/23 02:55:57;;;;;;;8.82;1.67;;;11.00;99.90;;;;;;5146987;27;20339;-49
2023/12/23 02:58:23;;;;;;;3.72;1.30;;;11.00;99.90;;;;;;5147052;27;20174;-50
2023/12/23 03:00:49;;;;;;;8.38;1.67;;;11.00;99.90;;;;;;5146610;27;20031;-51
2023/12/23 03:03:14;;;;;;;7.75;1.35;;;11.00;99.90;;;;;;5146563;27;20239;-48
2023/12/23 03:05:40;;;;;;;9.40;1.50;;;11.00;99.90;;;;;;5145804;27;20031;-48
2023/12/23 03:08:06;;;;;;;11.18;2.00;;;11.00;99.90;;;;;;5146452;27;20051;-50
2023/12/23 03:10:32;;;;;;;10.82;1.95;;;11.00;99.90;;;;;;5146874;27;20027;-50
2023/12/23 03:12:58;;;;;;;11.63;1.70;;;11.00;99.90;;;;;;5146945;27;20134;-47
2023/12/23 03:15:23;;;;;;;7.25;1.52;;;11.00;99.90;;;;;;5146459;27;20038;-50
2023/12/23 03:17:49;;;;;;;15.15;1.85;;;11.00;99.90;;;;;;5146772;28;20019;-51
2023/12/23 03:20:15;;;;;;;12.82;2.05;;;11.00;99.90;;;;;;5146781;28;20053;-49
2023/12/23 03:22:40;;;;;;;11.18;2.20;;;11.00;99.90;;;;;;5146776;28;20043;-47
2023/12/23 03:25:06;;;;;;;10.18;2.00;;;11.00;99.90;;;;;;5145641;28;20023;-46
2023/12/23 03:27:32;;;;;;;11.32;2.42;;;11.00;99.90;;;;;;5146569;28;20080;-47
2023/12/23 03:29:57;;;;;;;9.68;2.13;;;10.90;99.90;;;;;;5147904;27;20273;-49
2023/12/23 03:32:23;;;;;;;13.40;2.25;;;10.80;99.90;;;;;;5150907;27;20023;-49
2023/12/23 03:34:49;;;;;;;11.70;2.13;;;10.80;99.90;;;;;;5150585;27;20026;-50
2023/12/23 03:37:15;;;;;;;10.85;2.50;;;10.70;99.90;;;;;;5150578;27;20066;-50
2023/12/23 03:39:41;;;;;;;10.57;2.15;;;10.70;99.90;;;;;;5150697;27;20023;-47
2023/12/23 03:42:07;;;;;;;15.70;2.78;;;10.60;99.90;;;;;;5150822;27;20080;-46
2023/12/23 03:44:32;;;;;;;9.90;2.15;;;10.60;99.90;;;;;;5150594;27;20045;-46
2023/12/23 03:46:58;;;;;;;10.57;2.42;;;10.60;99.90;;;;;;5150423;27;20023;-46
2023/12/23 03:49:24;;;;;;;12.10;2.85;;;10.60;99.90;;;;;;5150087;27;20034;-47
2023/12/23 03:51:49;;;;;;;17.95;2.40;;;10.60;99.90;;;;;;5150373;27;20078;-47
2023/12/23 03:54:15;;;;;;;11.80;2.17;;;10.70;99.90;;;;;;5149550;27;20039;-47
2023/12/23 03:56:40;;;;;;;12.13;2.10;;;10.70;99.90;;;;;;5150509;27;20030;-47
2023/12/23 03:59:06;;;;;;;19.35;2.83;;;10.80;99.90;;;;;;5150177;27;20284;-47
2023/12/23 04:01:32;;;;;;;13.23;2.08;;;10.90;99.90;;;;;;5149484;27;20055;-46
2023/12/23 04:03:57;;;;;;;11.13;2.10;;;10.90;99.90;;;;;;5150306;27;20082;-46
2023/12/23 04:06:23;;;;;;;10.20;1.65;;;11.00;99.90;;;;;;5149799;27;20019;-47
2023/12/23 04:08:49;;;;;;;8.73;1.67;;;11.10;99.90;;;;;;5149789;27;20047;-46
2023/12/23 04:11:15;;;;;;;8.20;1.83;;;11.10;99.90;;;;;;5150081;27;20019;-47
2023/12/23 04:13:40;;;;;;;8.52;1.33;;;11.10;99.90;;;;;;5150151;27;20192;-46
2023/12/23 04:16:06;;;;;;;10.10;1.83;;;11.20;99.90;;;;;;5150068;27;20253;-46
2023/12/23 04:18:32;;;;;;;8.25;1.55;;;11.10;99.90;;;;;;5149984;27;20035;-46
2023/12/23 04:21:00;;;;;;;9.57;2.35;;;11.10;99.90;;;;;;5149824;27;20223;-46
2023/12/23 04:23:26;;;;;;;8.15;1.88;;;11.20;99.90;;;;;;5149998;27;20200;-48
2023/12/23 04:25:52;;;;;;;10.85;1.65;;;11.20;99.90;;;;;;5149893;27;20035;-47
2023/12/23 04:28:24;;;;;;;8.05;1.45;;;11.10;99.90;;;;;;5149995;27;20145;-48
2023/12/23 04:30:54;;;;;;;5.85;1.38;;;11.10;99.90;;;;;;5149513;27;20050;-46
2023/12/23 04:33:21;;;;;;;4.28;1.63;;;11.10;99.90;;;;;;5149645;27;20033;-46
2023/12/23 04:35:47;;;;;;;8.75;1.20;;;11.20;99.90;;;;;;5149713;27;20061;-47
2023/12/23 04:38:14;;;;;;;9.13;1.55;;;11.20;99.90;;;;;;5149164;27;20293;-46
2023/12/23 04:40:40;;;;;;;7.63;1.23;;;11.10;99.90;;;;;;5149676;27;20027;-46
2023/12/23 04:43:05;;;;;;;10.05;1.35;;;11.20;99.90;;;;;;5147341;27;20023;-46
2023/12/23 04:45:31;;;;;;;7.65;2.55;;;11.10;99.90;;;;;;5148464;27;20235;-47
2023/12/23 04:47:57;;;;;;;7.60;1.40;;;11.10;99.90;;;;;;5148531;27;20047;-47
2023/12/23 04:50:22;;;;;;;5.80;1.02;;;11.10;99.90;;;;;;5149437;27;20031;-47
2023/12/23 04:52:48;;;;;;;7.13;1.48;;;11.10;99.90;;;;;;5149058;27;20019;-46
2023/12/23 04:55:14;;;;;;;2.85;0.90;;;11.10;99.90;;;;;;5149316;27;20023;-47
2023/12/23 04:57:40;;;;;;;3.17;0.90;;;11.10;99.90;;;;;;5149272;27;20282;-47
2023/12/23 05:00:06;;;;;;;6.13;1.08;;;11.10;99.90;;;;;;5149229;27;20031;-49
2023/12/23 05:02:33;;;;;;;6.72;1.20;;;11.10;99.90;;;;;;5149292;27;20027;-48
2023/12/23 05:04:58;;;;;;;3.47;0.90;;;11.10;99.90;;;;;;5148818;27;20034;-48
2023/12/23 05:07:24;;;;;;;9.32;1.17;;;11.10;99.90;;;;;;5148866;27;20025;-49
2023/12/23 05:09:50;;;;;;;6.32;1.05;;;11.00;99.90;;;;;;5148743;27;20039;-51
2023/12/23 05:12:16;;;;;;;6.40;1.17;;;11.00;99.90;;;;;;5130829;27;20034;-50
2023/12/23 05:14:41;;;;;;;7.60;1.20;;;10.90;99.90;;;;;;5148997;27;20277;-50
2023/12/23 05:17:07;;;;;;;6.32;1.48;;;10.80;99.90;;;;;;5148757;27;20256;-49
2023/12/23 05:19:34;;;;;;;5.95;1.20;;;10.80;99.90;;;;;;5148693;27;20076;-50
2023/12/23 05:21:59;;;;;;;6.78;1.10;;;10.70;99.90;;;;;;5147696;27;20023;-51
2023/12/23 05:24:25;;;;;;;7.32;1.27;;;10.70;99.90;;;;;;5148224;27;20027;-49
2023/12/23 05:26:51;;;;;;;5.15;1.00;;;10.70;99.90;;;;;;5148428;27;20031;-51
2023/12/23 05:29:16;;;;;;;6.90;1.13;;;10.70;99.90;;;;;;5148410;27;20027;-50
2023/12/23 05:31:42;;;;;;;8.02;1.25;;;10.80;99.90;;;;;;5147576;27;20034;-46
2023/12/23 05:34:08;;;;;;;8.90;1.40;;;10.90;99.90;;;;;;5148622;27;20030;-50
2023/12/23 05:36:34;;;;;;;8.68;1.83;;;10.90;99.90;;;;;;5148608;27;20049;-48
2023/12/23 05:38:59;;;;;;;10.48;1.80;;;10.90;99.90;;;;;;5148271;27;20015;-47
2023/12/23 05:41:25;;;;;;;5.65;1.17;;;10.90;99.90;;;;;;5148159;27;20052;-48
2023/12/23 05:43:51;;;;;;;6.05;1.50;;;10.90;99.90;;;;;;5148280;27;20027;-50
2023/12/23 05:46:16;;;;;;;6.05;1.25;;;10.90;99.90;;;;;;5148495;27;20130;-50
2023/12/23 05:48:42;;;;;;;9.07;1.48;;;10.80;99.90;;;;;;5148374;27;20232;-50
2023/12/23 05:51:11;;;;;;;6.28;1.30;;;10.80;99.90;;;;;;5148233;27;20203;-51
2023/12/23 05:53:36;;;;;;;16.98;2.25;;;10.80;99.90;;;;;;5147195;27;20027;-51
2023/12/23 05:56:06;;;;;;;8.70;2.15;;;10.80;99.90;;;;;;5147742;27;20059;-50
2023/12/23 05:58:32;;;;;;;9.80;1.80;;;10.80;99.90;;;;;;5147053;27;20227;-51
2023/12/23 06:00:58;;;;;;;9.35;2.22;;;10.80;99.90;;;;;;5147324;27;20035;-50
2023/12/23 06:03:23;;;;;;;11.55;1.65;;;10.80;99.90;;;;;;5147933;27;20319;-50
2023/12/23 06:05:49;;;;;;;7.13;1.45;;;10.80;99.90;;;;;;5147863;27;20019;-49
2023/12/23 06:08:15;;;;;;;7.50;2.05;;;10.80;99.90;;;;;;5147545;27;20047;-51
2023/12/23 06:10:40;;;;;;;11.52;2.20;;;10.80;99.90;;;;;;5148645;27;20284;-50
2023/12/23 06:13:06;;;;;;;9.82;1.85;;;10.80;99.90;;;;;;5147585;27;20023;-51
2023/12/23 06:15:32;;;;;;;8.07;1.60;;;10.80;99.90;;;;;;5147661;27;20019;-51
2023/12/23 06:17:57;;;;;;;9.00;2.28;;;10.80;99.90;;;;;;5147696;27;20053;-50
2023/12/23 06:20:23;;;;;;;7.38;1.98;;;10.80;99.90;;;;;;5147771;27;20026;-50
2023/12/23 06:22:49;;;;;;;12.55;2.10;;;10.80;99.90;;;;;;5146480;27;20026;-49
2023/12/23 06:25:15;;;;;;;12.75;2.38;;;10.80;99.90;;;;;;5147602;27;20187;-50
2023/12/23 06:27:41;;;;;;;13.90;2.60;;;10.80;99.90;;;;;;5146183;27;20011;-50
2023/12/23 06:30:07;;;;;;;10.20;2.25;;;10.80;99.90;;;;;;5147447;27;20126;-47
2023/12/23 06:32:33;;;;;;;10.88;2.58;;;10.80;99.90;;;;;;5147485;27;20094;-49
2023/12/23 06:34:58;;;;;;;13.82;2.58;;;10.80;99.90;;;;;;5147359;27;20023;-48
2023/12/23 06:37:24;;;;;;;12.27;2.17;;;10.90;99.90;;;;;;5146160;27;20027;-47
2023/12/23 06:39:50;;;;;;;5.45;1.90;;;10.80;99.90;;;;;;5147250;27;20096;-50
2023/12/23 06:42:15;;;;;;;10.75;1.63;;;10.80;99.90;;;;;;5147183;27;20031;-50
2023/12/23 06:44:41;;;;;;;9.20;1.98;;;10.80;99.90;;;;;;5147138;27;20042;-50
2023/12/23 06:47:07;;;;;;;9.40;2.17;;;10.80;99.90;;;;;;5146885;27;20027;-51
2023/12/23 06:49:33;;;;;;;6.40;1.70;;;10.80;99.90;;;;;;5146936;27;20064;-50
2023/12/23 06:51:59;;;;;;;10.05;1.95;;;10.80;99.90;;;;;;5146931;27;20015;-51
2023/12/23 06:54:24;;;;;;;13.80;2.28;;;10.80;99.90;;;;;;5147027;27;20081;-50
2023/12/23 06:56:50;;;;;;;7.00;2.00;;;10.80;99.90;;;;;;5146777;27;20038;-51
2023/12/23 06:59:16;;;;;;;5.85;1.50;;;10.80;99.90;;;;;;5146558;27;20023;-47
2023/12/23 07:01:41;;;;;;;12.65;2.10;;;10.80;99.90;;;;;;5146896;27;20027;-48
2023/12/23 07:04:08;;;;;;;9.80;1.98;;;10.80;99.90;;;;;;5146734;27;20079;-48
2023/12/23 07:06:34;;;;;;;12.65;2.10;;;10.80;99.90;;;;;;5146841;27;20027;-51
2023/12/23 07:08:59;;;;;;;7.50;1.70;;;10.80;99.90;;;;;;5146566;27;20066;-50
2023/12/23 07:11:25;;;;;;;9.18;2.40;;;10.80;99.90;;;;;;5146693;27;20053;-51
2023/12/23 07:13:51;;;;;;;8.70;1.85;;;10.80;99.90;;;;;;5146833;27;20066;-50
2023/12/23 07:16:17;;;;;;;8.90;2.33;;;10.80;99.90;;;;;;5146971;28;20323;-49
2023/12/23 07:18:43;;;;;;;8.18;1.85;;;10.80;99.90;;;;;;5146333;28;20042;-50
2023/12/23 07:21:08;;;;;;;6.40;1.88;;;10.80;99.90;;;;;;5145604;28;20019;-50
2023/12/23 07:23:34;;;;;;;9.48;1.88;;;10.80;99.90;;;;;;5128355;28;20039;-50
2023/12/23 07:26:00;;;;;;;7.00;1.90;;;10.90;99.90;;;;;;5146589;28;20023;-50
2023/12/23 07:28:26;;;;;;;12.52;2.35;;;10.90;99.90;;;;;;5145526;28;20132;-51
2023/12/23 07:30:51;;;;;;;13.98;2.00;;;10.90;99.90;;;;;;5146784;28;20042;-49
2023/12/23 07:33:17;;;;;;;13.63;2.00;;;10.90;99.90;;;;;;5146467;28;20039;-48
2023/12/23 07:35:43;;;;;;;11.48;2.35;;;10.90;99.90;;;;;;5146363;28;20098;-48
2023/12/23 07:38:08;;;;;;;10.95;1.88;;;10.90;99.90;;;;;;5146448;28;20031;-49
2023/12/23 07:40:35;;;;;;;10.90;2.20;;;11.00;99.90;;;;;;5146525;28;20046;-50
2023/12/23 07:43:01;;;;;;;8.57;1.90;;;11.00;99.90;;;;;;5146215;28;20027;-50
2023/12/23 07:45:27;;;;;;;13.75;2.20;;;11.00;99.90;;;;;;5146196;28;20023;-50
2023/12/23 07:47:53;;;;;;;15.52;2.70;;;11.00;99.90;;;;;;5146293;28;20027;-50
2023/12/23 07:50:18;;;;;;;10.80;2.50;;;11.00;99.90;;;;;;5146475;28;20094;-50
2023/12/23 07:52:44;;;;;;;10.60;1.70;;;11.00;99.90;;;;;;5146422;28;20023;-51
2023/12/23 07:55:10;;;;;;;4.80;1.17;;;11.00;99.90;;;;;;5146381;28;20289;-47
2023/12/23 07:57:35;;;;;;;9.68;1.40;;;11.00;99.90;;;;;;5145319;28;20079;-47
2023/12/23 08:00:01;;;;;;;7.53;1.92;;;11.00;99.90;;;;;;5146261;28;20065;-49
2023/12/23 08:02:26;;;;;;;5.28;1.38;;;11.00;99.90;;;;;;5145071;28;20304;-49
2023/12/23 08:04:52;;;;;;;8.73;1.40;;;11.00;99.90;;;;;;5145841;28;20172;-48
2023/12/23 08:07:18;;;;;;;6.22;1.65;;;11.00;99.90;;;;;;5145856;28;20330;-47
2023/12/23 08:09:43;;;;;;;8.13;1.92;;;11.00;99.90;;;;;;5146246;28;20042;-47
2023/12/23 08:12:09;;;;;;;7.97;1.20;;;11.00;99.90;;;;;;5146328;28;20082;-51
2023/12/23 08:14:35;;;;;;;7.00;1.42;;;11.00;99.90;;;;;;5145514;28;20031;-49
2023/12/23 08:17:00;;;;;;;6.55;1.30;;;11.00;99.90;;;;;;5147112;27;20038;-51
2023/12/23 08:19:26;;;;;;;5.03;1.23;;;11.00;99.90;;;;;;5149961;27;20086;-51
2023/12/23 08:21:52;;;;;;;6.90;1.40;;;11.00;99.90;;;;;;5148879;27;20173;-51
2023/12/23 08:24:17;;;;;;;6.57;1.75;;;11.00;99.90;;;;;;5149908;27;20088;-51
2023/12/23 08:26:44;;;;;;;8.23;1.23;;;11.00;99.90;;;;;;5149737;27;20026;-51
2023/12/23 08:29:10;;;;;;;6.20;1.30;;;11.00;99.90;;;;;;5148862;27;20054;-51
2023/12/23 08:31:45;;;;;;;6.72;1.13;;;11.00;99.90;;;;;;5149625;27;20281;-48
2023/12/23 08:34:10;;;;;;;7.25;1.42;;;11.10;99.90;;;;;;5149715;27;20231;-49
2023/12/23 08:36:36;;;;;;;5.50;1.23;;;11.10;99.90;;;;;;5149129;27;20090;-51
2023/12/23 08:39:02;;;;;;;8.65;1.23;;;11.10;99.90;;;;;;5149343;27;20173;-51
2023/12/23 08:41:28;;;;;;;8.60;1.60;;;11.10;99.90;;;;;;5148502;27;20027;-50
2023/12/23 08:43:53;;;;;;;5.65;1.30;;;11.10;99.90;;;;;;5149235;27;20031;-48
2023/12/23 08:46:19;;;;;;;8.70;1.50;;;11.10;99.90;;;;;;5149255;27;20086;-51
2023/12/23 08:48:45;;;;;;;6.32;1.40;;;11.10;99.90;;;;;;5148089;27;20035;-48
2023/12/23 08:51:10;;;;;;;7.35;1.20;;;11.10;99.90;;;;;;5149080;27;20027;-48
2023/12/23 08:53:36;;;;;;;5.65;1.38;;;11.10;99.90;;;;;;5149111;27;20288;-48
2023/12/23 08:56:02;;;;;;;6.13;1.52;;;11.10;99.90;;;;;;5149457;27;20050;-48
2023/12/23 08:58:30;;;;;;;7.30;1.77;;;11.10;99.90;;;;;;5130676;27;20258;-50
2023/12/23 09:00:56;;;;;;;9.10;1.90;;;11.10;99.90;;;;;;5148983;27;20030;-51
2023/12/23 09:03:22;;;;;;;9.75;1.88;;;11.10;99.90;;;;;;5147855;27;20177;-48
2023/12/23 09:05:48;;;;;;;7.80;2.03;;;11.10;99.90;;;;;;5148641;27;20037;-51
2023/12/23 09:08:13;;;;;;;5.97;1.40;;;11.20;99.90;;;;;;5149023;27;20077;-51
2023/12/23 09:10:39;;;;;;;9.35;1.42;;;11.20;99.90;;;;;;5149019;27;20038;-50
2023/12/23 09:13:05;;;;;;;6.45;1.23;;;11.20;99.90;;;;;;5148939;27;20023;-49
2023/12/23 09:15:30;;;;;;;3.15;0.80;;;11.20;99.90;;;;;;5148737;27;20051;-51
2023/12/23 09:17:56;;;;;;;5.50;1.35;;;11.20;99.90;;;;;;5148967;27;20031;-51
2023/12/23 09:20:22;;;;;;;8.68;1.67;;;11.30;99.90;;;;;;5148208;27;20027;-51
2023/12/23 09:22:48;;;;;;;6.20;1.27;;;11.20;99.90;;;;;;5148912;27;20019;-51
2023/12/23 09:25:13;;;;;;;7.47;1.88;;;11.30;99.90;;;;;;5148496;27;20031;-51
2023/12/23 09:27:39;;;;;;;14.07;2.30;;;11.30;99.90;;;;;;5148228;27;20159;-51
2023/12/23 09:30:05;;;;;;;11.77;1.73;;;11.30;99.90;;;;;;5147523;27;20019;-50
2023/12/23 09:32:31;;;;;;;7.63;1.50;;;11.30;99.90;;;;;;5148401;27;20229;-51
2023/12/23 09:34:56;;;;;;;8.38;1.50;;;11.30;99.90;;;;;;5148359;27;20042;-51
2023/12/23 09:37:22;;;;;;;8.93;1.70;;;11.30;99.90;;;;;;5147745;27;20344;-51
2023/12/23 09:39:48;;;;;;;7.88;1.90;;;11.30;99.90;;;;;;5148260;27;20277;-50
2023/12/23 09:42:13;;;;;;;6.72;1.70;;;11.30;99.90;;;;;;5148154;27;20023;-51
2023/12/23 09:44:40;;;;;;;13.07;2.00;;;11.30;99.90;;;;;;5147717;27;20019;-51
2023/12/23 09:47:06;;;;;;;6.38;1.40;;;11.40;99.90;;;;;;5147754;27;20027;-48
2023/12/23 09:49:32;;;;;;;16.35;4.15;;;11.40;99.90;;;;;;5112730;27;20035;-51
2023/12/23 09:51:58;;;;;;;5.82;1.50;;;11.50;99.90;;;;;;5147441;27;20276;-48
2023/12/23 09:54:24;;;;;;;6.00;1.40;;;11.50;99.90;;;;;;5147002;27;20231;-48
2023/12/23 09:56:50;;;;;;;4.45;1.30;;;11.50;99.90;;;;;;5147672;27;20042;-50
2023/12/23 09:59:16;;;;;;;6.82;1.38;;;11.50;99.90;;;;;;5147605;27;20027;-49
2023/12/23 10:01:41;;;;;;;3.72;1.20;;;11.60;99.90;;;;;;5147652;27;20094;-48
2023/12/23 10:04:07;;;;;;;11.55;1.50;;;11.60;99.90;;;;;;5146575;27;20031;-48
2023/12/23 10:06:33;;;;;;;7.30;1.55;;;11.70;99.90;;;;;;5147795;27;20072;-51
2023/12/23 10:08:58;;;;;;;10.73;1.33;;;11.70;99.90;;;;;;5147322;27;20344;-49
2023/12/23 10:11:24;;;;;;;6.68;1.27;;;11.70;99.90;;;;;;5146581;27;20090;-50
2023/12/23 10:13:51;;;;;;;5.40;1.20;;;11.70;99.90;;;;;;5147519;27;20273;-48
2023/12/23 10:16:17;;;;;;;3.72;1.08;;;11.70;99.90;;;;;;5147597;27;20049;-51
2023/12/23 10:18:46;;;;;;;5.85;1.33;;;11.70;99.90;;;;;;5146380;27;20273;-48
2023/12/23 10:21:11;;;;;;;14.82;8.18;;;11.80;99.90;;;;;;5146154;27;20040;-51
2023/12/23 10:23:37;;;;;;;11.13;4.78;;;11.80;99.90;;;;;;5146775;27;20050;-52
2023/12/23 10:26:03;;;;;;;5.03;1.48;;;11.90;99.90;;;;;;5147252;27;20027;-51
2023/12/23 10:28:29;;;;;;;5.57;1.73;;;11.90;99.90;;;;;;5147293;27;20015;-51
2023/12/23 10:30:58;;;;;;;5.55;1.20;;;11.90;99.90;;;;;;5147211;27;20027;-51
2023/12/23 10:33:23;;;;;;;6.07;1.17;;;11.90;99.90;;;;;;5145796;27;20027;-51
2023/12/23 10:35:49;;;;;;;4.57;1.17;;;12.00;99.90;;;;;;5146933;27;20042;-50
2023/12/23 10:38:16;;;;;;;4.95;1.58;;;11.90;99.90;;;;;;5146151;27;20068;-50
2023/12/23 10:41:03;;;;;;;8.38;3.08;;;12.00;99.90;;;;;;5145435;27;20177;-49
2023/12/23 10:43:29;;;;;;;12.38;2.17;;;11.90;99.90;;;;;;5146081;27;20108;-51
2023/12/23 10:45:55;;;;;;;9.23;2.17;;;11.90;99.90;;;;;;5146683;27;20023;-50
2023/12/23 10:48:21;;;;;;;5.63;1.27;;;12.00;99.90;;;;;;5145739;27;20030;-48
2023/12/23 10:50:47;;;;;;;7.80;1.63;;;11.90;99.90;;;;;;5145244;27;20023;-51
2023/12/23 10:53:15;;;;;;;5.93;0.95;;;11.90;99.90;;;;;;5146275;27;20031;-50
2023/12/23 10:55:41;;;;;;;7.18;1.85;;;11.90;99.90;;;;;;5146249;27;20337;-48
2023/12/23 10:58:09;;;;;;;4.13;1.65;;;11.90;99.90;;;;;;5128467;27;20019;-50
2023/12/23 11:00:36;;;;;;;6.80;2.47;;;11.90;99.90;;;;;;5145767;27;20174;-51
2023/12/23 11:03:02;;;;;;;5.35;1.48;;;11.90;99.90;;;;;;5146463;27;20015;-51
2023/12/23 11:05:27;;;;;;;4.95;2.10;;;11.90;99.90;;;;;;5145422;27;20197;-51
2023/12/23 11:07:53;;;;;;;6.35;1.67;;;11.90;99.90;;;;;;5128022;27;20062;-49
2023/12/23 11:10:19;;;;;;;4.93;1.38;;;11.90;99.90;;;;;;5128830;27;20136;-52
2023/12/23 11:12:47;;;;;;;5.85;1.33;;;11.90;99.90;;;;;;5145963;27;20185;-52
2023/12/23 11:15:12;;;;;;;4.13;1.20;;;11.90;99.90;;;;;;5145188;27;20205;-52
2023/12/23 11:17:45;;;;;;;3.85;1.17;;;11.80;99.90;;;;;;5146349;27;20019;-51
2023/12/23 11:20:43;;;;;;;10.73;2.10;;;11.80;99.90;;;;;;5146266;28;20297;-52
2023/12/23 11:23:30;;;;;;;8.82;1.55;;;11.80;99.90;;;;;;5145205;28;20047;-49
2023/12/23 11:25:56;;;;;;;5.05;1.27;;;11.80;99.90;;;;;;5146157;28;20038;-52
2023/12/23 11:28:21;;;;;;;10.98;2.22;;;11.70;99.90;;;;;;5144783;28;20031;-51
2023/12/23 11:30:53;;;;;;;16.83;1.85;;;11.60;99.90;;;;;;5145311;28;20035;-51
2023/12/23 11:33:19;;;;;;;7.82;2.50;;;11.70;99.90;;;;;;5145055;28;20028;-51
2023/12/23 11:35:51;;;;;;;3.20;1.38;;;11.60;99.90;;;;;;5145953;28;20042;-51
2023/12/23 11:38:17;;;;;;;8.48;2.75;;;11.60;99.90;;;;;;5146357;28;20035;-51
2023/12/23 11:40:42;;;;;;;7.65;2.00;;;11.60;99.90;;;;;;5146200;28;20173;-51
2023/12/23 11:43:08;;;;;;;10.10;1.88;;;11.60;99.90;;;;;;5144667;28;20068;-52
2023/12/23 11:45:35;;;;;;;8.98;3.42;;;11.60;99.90;;;;;;5145425;28;20027;-51
2023/12/23 11:48:00;;;;;;;8.68;1.80;;;11.50;99.90;;;;;;5127673;28;20039;-52
2023/12/23 11:50:29;;;;;;;7.07;1.45;;;11.50;99.90;;;;;;5146203;27;20042;-51
2023/12/23 11:52:54;;;;;;;12.73;2.22;;;11.50;99.90;;;;;;5149448;27;20046;-51
2023/12/23 11:55:20;;;;;;;11.32;1.98;;;11.50;99.90;;;;;;5131692;27;20027;-50
2023/12/23 11:57:46;;;;;;;10.07;1.95;;;11.40;99.90;;;;;;5148888;27;20034;-49
2023/12/23 12:00:12;;;;;;;2.85;1.05;;;11.50;99.90;;;;;;5149361;27;20076;-49
2023/12/23 12:02:37;;;;;;;9.15;2.35;;;11.40;99.90;;;;;;5148559;27;20030;-48
2023/12/23 12:05:04;;;;;;;8.18;1.98;;;11.50;99.90;;;;;;5149626;27;20129;-51
2023/12/23 12:07:30;;;;;;;4.70;1.58;;;11.50;99.90;;;;;;5148576;27;20038;-51
2023/12/23 12:09:56;;;;;;;55.20;29.55;;;11.50;99.90;;;;;;5149496;27;20038;-51
2023/12/23 12:12:21;;;;;;;92.05;40.72;;;11.50;99.90;;;;;;5148554;27;20015;-51
2023/12/23 12:14:47;;;;;;;15.48;6.65;;;11.50;99.90;;;;;;5149240;27;20027;-50
2023/12/23 12:17:13;;;;;;;23.92;12.60;;;11.50;99.90;;;;;;5148425;27;20076;-47
2023/12/23 12:19:38;;;;;;;27.30;16.92;;;11.50;99.90;;;;;;5149449;27;20027;-47
2023/12/23 12:22:04;;;;;;;7.10;2.75;;;11.50;99.90;;;;;;5149435;27;20328;-47
2023/12/23 12:24:30;;;;;;;9.82;2.88;;;11.60;99.90;;;;;;5149443;27;20038;-47
2023/12/23 12:26:57;;;;;;;10.23;2.40;;;11.60;99.90;;;;;;5148377;27;20023;-48
2023/12/23 12:29:23;;;;;;;12.32;2.60;;;11.60;99.90;;;;;;5149281;27;20026;-47
2023/12/23 12:31:52;;;;;;;13.45;4.45;;;11.60;99.90;;;;;;5149196;27;20042;-47
2023/12/23 12:34:18;;;;;;;6.78;2.17;;;11.60;99.90;;;;;;5149534;27;20076;-48
2023/12/23 12:36:44;;;;;;;5.95;1.85;;;11.60;99.90;;;;;;5149266;27;20215;-47